AXY1F KLAS-KMIA
Flight info
| Callsign | AXY1F |
|---|---|
| Flight time | 4h 27m |
| Altitude | 41000 |
| Route | NIITZ4 SSKEE INW CNX ABI J50 LFK HRV Q105 BLVNS Y290 GAWKS FROGZ5 |
| Aircraft | A343/H-SDE2E3FGHIJ4J5M1RWXY/LB1D1 |
Departure
| Time | 2026-04-30 14:18 |
|---|---|
| Airport | Harry Reid International Airport (KLAS) |
Arrival
| Time | 2026-04-30 18:45 |
|---|---|
| Airport | Miami International Airport (KMIA) |
| Time | Latitude | Longitude | Altitude | Speed | Heading |
|---|---|---|---|---|---|
| 2026-04-30 14:07 | 36.09643 | -115.16322 | 2138 ft | 0 kts | 84° |
| 2026-04-30 14:13 | 36.09648 | -115.16267 | 2134 ft | 12 kts | 84° |
| 2026-04-30 14:13 | 36.09712 | -115.16180 | 2129 ft | 17 kts | 32° |
| 2026-04-30 14:13 | 36.09782 | -115.16059 | 2124 ft | 17 kts | 95° |
| 2026-04-30 14:13 | 36.09702 | -115.16036 | 2120 ft | 15 kts | 197° |
| 2026-04-30 14:14 | 36.09557 | -115.16115 | 2128 ft | 26 kts | 205° |
| 2026-04-30 14:14 | 36.09394 | -115.16210 | 2130 ft | 26 kts | 205° |
| 2026-04-30 14:14 | 36.09227 | -115.16310 | 2135 ft | 27 kts | 205° |
| 2026-04-30 14:14 | 36.09050 | -115.16405 | 2142 ft | 31 kts | 204° |
| 2026-04-30 14:15 | 36.08841 | -115.16525 | 2150 ft | 32 kts | 208° |
| 2026-04-30 14:15 | 36.08646 | -115.16644 | 2153 ft | 32 kts | 205° |
| 2026-04-30 14:15 | 36.08451 | -115.16753 | 2156 ft | 30 kts | 204° |
| 2026-04-30 14:15 | 36.08266 | -115.16857 | 2161 ft | 28 kts | 205° |
| 2026-04-30 14:16 | 36.08051 | -115.16978 | 2164 ft | 39 kts | 204° |
| 2026-04-30 14:16 | 36.07810 | -115.17107 | 2172 ft | 32 kts | 199° |
| 2026-04-30 14:16 | 36.07595 | -115.17090 | 2168 ft | 31 kts | 156° |
| 2026-04-30 14:16 | 36.07493 | -115.16894 | 2163 ft | 28 kts | 113° |
| 2026-04-30 14:17 | 36.07515 | -115.16699 | 2160 ft | 25 kts | 25° |
| 2026-04-30 14:17 | 36.07827 | -115.16521 | 2149 ft | 82 kts | 25° |
| 2026-04-30 14:17 | 36.08541 | -115.16112 | 2128 ft | 140 kts | 25° |
| 2026-04-30 14:17 | 36.09527 | -115.15552 | 2417 ft | 164 kts | 24° |
| 2026-04-30 14:18 | 36.10467 | -115.14717 | 2911 ft | 179 kts | 58° |
| 2026-04-30 14:18 | 36.10647 | -115.13186 | 3464 ft | 192 kts | 97° |
| 2026-04-30 14:18 | 36.10603 | -115.09346 | 4401 ft | 247 kts | 77° |
| 2026-04-30 14:19 | 36.11538 | -115.05183 | 6426 ft | 258 kts | 69° |
| 2026-04-30 14:19 | 36.12152 | -115.03068 | 7351 ft | 266 kts | 68° |
| 2026-04-30 14:19 | 36.12821 | -115.00904 | 8246 ft | 273 kts | 68° |
| 2026-04-30 14:20 | 36.13527 | -114.98694 | 9193 ft | 279 kts | 67° |
| 2026-04-30 14:20 | 36.14227 | -114.96422 | 10113 ft | 286 kts | 71° |
| 2026-04-30 14:20 | 36.14905 | -114.91486 | 11866 ft | 296 kts | 82° |
| 2026-04-30 14:21 | 36.15133 | -114.88931 | 12717 ft | 302 kts | 84° |
| 2026-04-30 14:21 | 36.14978 | -114.86322 | 13565 ft | 308 kts | 101° |
| 2026-04-30 14:21 | 36.13804 | -114.81125 | 15033 ft | 319 kts | 105° |
| 2026-04-30 14:22 | 36.13168 | -114.78465 | 15707 ft | 326 kts | 105° |
| 2026-04-30 14:22 | 36.11928 | -114.72952 | 16917 ft | 343 kts | 102° |
| 2026-04-30 14:22 | 36.11386 | -114.69997 | 17210 ft | 362 kts | 102° |
| 2026-04-30 14:23 | 36.10220 | -114.63618 | 17770 ft | 399 kts | 102° |
| 2026-04-30 14:23 | 36.08927 | -114.56716 | 18502 ft | 427 kts | 102° |
| 2026-04-30 14:24 | 36.07559 | -114.49481 | 19667 ft | 437 kts | 102° |
| 2026-04-30 14:24 | 36.06860 | -114.45799 | 20272 ft | 441 kts | 102° |
| 2026-04-30 14:25 | 36.05441 | -114.38353 | 21563 ft | 447 kts | 101° |
| 2026-04-30 14:25 | 36.03992 | -114.30778 | 22635 ft | 458 kts | 101° |
| 2026-04-30 14:26 | 36.02509 | -114.23056 | 23747 ft | 465 kts | 101° |
| 2026-04-30 14:26 | 36.01756 | -114.19147 | 24215 ft | 469 kts | 101° |
| 2026-04-30 14:26 | 36.00234 | -114.11267 | 25155 ft | 475 kts | 102° |
| 2026-04-30 14:27 | 35.99471 | -114.07330 | 25610 ft | 478 kts | 102° |
| 2026-04-30 14:27 | 35.98694 | -114.03320 | 25968 ft | 484 kts | 102° |
| 2026-04-30 14:27 | 35.97904 | -113.99259 | 26334 ft | 489 kts | 102° |
| 2026-04-30 14:28 | 35.96307 | -113.91065 | 27233 ft | 493 kts | 103° |
| 2026-04-30 14:28 | 35.95500 | -113.86939 | 27654 ft | 496 kts | 103° |
| 2026-04-30 14:28 | 35.94688 | -113.82797 | 28056 ft | 499 kts | 103° |
| 2026-04-30 14:28 | 35.93869 | -113.78627 | 28453 ft | 501 kts | 103° |
| 2026-04-30 14:29 | 35.92496 | -113.71645 | 29035 ft | 508 kts | 104° |
| 2026-04-30 14:29 | 35.90806 | -113.63093 | 29710 ft | 515 kts | 104° |
| 2026-04-30 14:30 | 35.88289 | -113.50124 | 30642 ft | 522 kts | 101° |
| 2026-04-30 14:31 | 35.87086 | -113.41311 | 31506 ft | 521 kts | 100° |
| 2026-04-30 14:31 | 35.85857 | -113.32445 | 31995 ft | 526 kts | 101° |
| 2026-04-30 14:31 | 35.85232 | -113.28055 | 32405 ft | 525 kts | 101° |
| 2026-04-30 14:32 | 35.83953 | -113.19180 | 33029 ft | 528 kts | 102° |
| 2026-04-30 14:32 | 35.83306 | -113.14724 | 33392 ft | 528 kts | 102° |
| 2026-04-30 14:32 | 35.82659 | -113.10282 | 33767 ft | 528 kts | 103° |
| 2026-04-30 14:33 | 35.82005 | -113.05816 | 33975 ft | 531 kts | 103° |
| 2026-04-30 14:33 | 35.80687 | -112.96844 | 34519 ft | 532 kts | 103° |
| 2026-04-30 14:33 | 35.80027 | -112.92366 | 34812 ft | 531 kts | 103° |
| 2026-04-30 14:34 | 35.79363 | -112.87884 | 35090 ft | 532 kts | 103° |
| 2026-04-30 14:34 | 35.78699 | -112.83406 | 35403 ft | 531 kts | 104° |
| 2026-04-30 14:34 | 35.78034 | -112.78933 | 35680 ft | 531 kts | 104° |
| 2026-04-30 14:34 | 35.77364 | -112.74444 | 35838 ft | 534 kts | 104° |
| 2026-04-30 14:35 | 35.76009 | -112.65390 | 36238 ft | 538 kts | 104° |
| 2026-04-30 14:35 | 35.75334 | -112.60864 | 36510 ft | 537 kts | 105° |
| 2026-04-30 14:35 | 35.74653 | -112.56331 | 36693 ft | 539 kts | 105° |
| 2026-04-30 14:36 | 35.73968 | -112.51783 | 36904 ft | 540 kts | 105° |
| 2026-04-30 14:36 | 35.73282 | -112.47230 | 37193 ft | 539 kts | 105° |
| 2026-04-30 14:36 | 35.72595 | -112.42686 | 37458 ft | 540 kts | 105° |
| 2026-04-30 14:36 | 35.71903 | -112.38132 | 37579 ft | 543 kts | 105° |
| 2026-04-30 14:37 | 35.71218 | -112.33622 | 37823 ft | 543 kts | 105° |
| 2026-04-30 14:37 | 35.70521 | -112.29049 | 38118 ft | 542 kts | 106° |
| 2026-04-30 14:37 | 35.69827 | -112.24501 | 38401 ft | 542 kts | 106° |
| 2026-04-30 14:37 | 35.69129 | -112.19947 | 38668 ft | 541 kts | 106° |
| 2026-04-30 14:38 | 35.68431 | -112.15402 | 38877 ft | 541 kts | 106° |
| 2026-04-30 14:38 | 35.67730 | -112.10854 | 39013 ft | 543 kts | 106° |
| 2026-04-30 14:38 | 35.67023 | -112.06284 | 39012 ft | 544 kts | 106° |
| 2026-04-30 14:39 | 35.65608 | -111.97151 | 39011 ft | 544 kts | 106° |
| 2026-04-30 14:39 | 35.64167 | -111.87945 | 38987 ft | 552 kts | 107° |
| 2026-04-30 14:40 | 35.61532 | -111.79240 | 38994 ft | 536 kts | 129° |
| 2026-04-30 14:40 | 35.59583 | -111.75361 | 38972 ft | 531 kts | 131° |
| 2026-04-30 14:40 | 35.55450 | -111.67843 | 38974 ft | 530 kts | 133° |
| 2026-04-30 14:41 | 35.51254 | -111.60391 | 38978 ft | 531 kts | 133° |
| 2026-04-30 14:41 | 35.47084 | -111.52906 | 38961 ft | 531 kts | 133° |
| 2026-04-30 14:42 | 35.42932 | -111.45399 | 38969 ft | 531 kts | 132° |
| 2026-04-30 14:42 | 35.38812 | -111.37950 | 38962 ft | 531 kts | 133° |
| 2026-04-30 14:43 | 35.34628 | -111.30403 | 38961 ft | 532 kts | 133° |
| 2026-04-30 14:43 | 35.30503 | -111.22978 | 38929 ft | 526 kts | 133° |
| 2026-04-30 14:44 | 35.26425 | -111.15638 | 38957 ft | 518 kts | 133° |
| 2026-04-30 14:44 | 35.22363 | -111.08368 | 38950 ft | 518 kts | 133° |
| 2026-04-30 14:45 | 35.18280 | -111.01084 | 38949 ft | 519 kts | 133° |
| 2026-04-30 14:45 | 35.14195 | -110.93802 | 39019 ft | 519 kts | 133° |
| 2026-04-30 14:46 | 35.10106 | -110.86519 | 39049 ft | 519 kts | 133° |
| 2026-04-30 14:46 | 35.06609 | -110.78765 | 39084 ft | 535 kts | 116° |
| 2026-04-30 14:47 | 35.04947 | -110.69787 | 39081 ft | 548 kts | 104° |
| 2026-04-30 14:47 | 35.03877 | -110.60529 | 38928 ft | 551 kts | 102° |
| 2026-04-30 14:48 | 35.02879 | -110.51258 | 38930 ft | 551 kts | 102° |
| 2026-04-30 14:48 | 35.01836 | -110.42000 | 38925 ft | 551 kts | 103° |
| 2026-04-30 14:49 | 35.00761 | -110.32792 | 38931 ft | 552 kts | 103° |
| 2026-04-30 14:49 | 34.99656 | -110.23464 | 38919 ft | 551 kts | 103° |
| 2026-04-30 14:50 | 34.98008 | -110.09646 | 38918 ft | 550 kts | 103° |
| 2026-04-30 14:51 | 34.96337 | -109.95769 | 38905 ft | 551 kts | 103° |
| 2026-04-30 14:52 | 34.94653 | -109.81902 | 38894 ft | 551 kts | 103° |
| 2026-04-30 14:52 | 34.92952 | -109.68038 | 38903 ft | 552 kts | 103° |
| 2026-04-30 14:53 | 34.91234 | -109.54168 | 38890 ft | 552 kts | 103° |
| 2026-04-30 14:54 | 34.88928 | -109.35762 | 38884 ft | 550 kts | 103° |
| 2026-04-30 14:55 | 34.87178 | -109.21948 | 38874 ft | 550 kts | 103° |
| 2026-04-30 14:56 | 34.84820 | -109.03534 | 38879 ft | 552 kts | 103° |
| 2026-04-30 14:57 | 34.83023 | -108.89656 | 38883 ft | 553 kts | 103° |
| 2026-04-30 14:58 | 34.80610 | -108.71203 | 38886 ft | 554 kts | 103° |
| 2026-04-30 14:58 | 34.78772 | -108.57303 | 38886 ft | 555 kts | 103° |
| 2026-04-30 15:00 | 34.75682 | -108.34200 | 38914 ft | 555 kts | 103° |
| 2026-04-30 15:01 | 34.73170 | -108.15677 | 38913 ft | 555 kts | 103° |
| 2026-04-30 15:01 | 34.71268 | -108.01791 | 38911 ft | 555 kts | 104° |
| 2026-04-30 15:02 | 34.69990 | -107.92525 | 38910 ft | 555 kts | 104° |
| 2026-04-30 15:03 | 34.66774 | -107.69453 | 38895 ft | 556 kts | 104° |
| 2026-04-30 15:04 | 34.63497 | -107.46274 | 38867 ft | 557 kts | 104° |
| 2026-04-30 15:06 | 34.60170 | -107.23069 | 38863 ft | 559 kts | 104° |
| 2026-04-30 15:07 | 34.57480 | -107.04543 | 38843 ft | 559 kts | 104° |
| 2026-04-30 15:08 | 34.54752 | -106.85965 | 38833 ft | 558 kts | 104° |
| 2026-04-30 15:09 | 34.51316 | -106.62841 | 38873 ft | 558 kts | 104° |
| 2026-04-30 15:10 | 34.48526 | -106.44295 | 38897 ft | 559 kts | 104° |
| 2026-04-30 15:11 | 34.44281 | -106.16449 | 38928 ft | 562 kts | 104° |
| 2026-04-30 15:13 | 34.40663 | -105.93073 | 38939 ft | 572 kts | 105° |
| 2026-04-30 15:14 | 34.34965 | -105.61863 | 38958 ft | 565 kts | 114° |
| 2026-04-30 15:17 | 34.22983 | -105.21555 | 38966 ft | 572 kts | 116° |
| 2026-04-30 15:19 | 34.12125 | -104.85429 | 38958 ft | 574 kts | 116° |
| 2026-04-30 17:39 | 27.19460 | -83.15648 | 39013 ft | 469 kts | 98° |
| 2026-04-30 17:42 | 27.11367 | -82.80282 | 38995 ft | 474 kts | 120° |
| 2026-04-30 17:43 | 27.02695 | -82.64542 | 38999 ft | 474 kts | 120° |
| 2026-04-30 17:44 | 26.92314 | -82.45720 | 38993 ft | 473 kts | 120° |
| 2026-04-30 17:46 | 26.80215 | -82.33326 | 37562 ft | 486 kts | 141° |
| 2026-04-30 17:47 | 26.69948 | -82.23582 | 36528 ft | 484 kts | 140° |
| 2026-04-30 17:48 | 26.59711 | -82.13811 | 35510 ft | 482 kts | 141° |
| 2026-04-30 17:48 | 26.52078 | -82.06535 | 34770 ft | 480 kts | 141° |
| 2026-04-30 17:49 | 26.42189 | -81.96539 | 33837 ft | 478 kts | 139° |
| 2026-04-30 17:50 | 26.32323 | -81.86608 | 32793 ft | 477 kts | 139° |
| 2026-04-30 17:51 | 26.24947 | -81.79209 | 32042 ft | 475 kts | 139° |
| 2026-04-30 17:52 | 26.16654 | -81.73497 | 31654 ft | 466 kts | 166° |
| 2026-04-30 17:53 | 26.01531 | -81.76218 | 31058 ft | 447 kts | 217° |
| 2026-04-30 17:54 | 25.94821 | -81.87339 | 30596 ft | 438 kts | 257° |
| 2026-04-30 17:55 | 25.96355 | -82.00439 | 30146 ft | 437 kts | 297° |
| 2026-04-30 17:56 | 26.04776 | -82.10109 | 29615 ft | 438 kts | 320° |
| 2026-04-30 17:57 | 26.11950 | -82.16305 | 29221 ft | 433 kts | 321° |
| 2026-04-30 17:58 | 26.19966 | -82.20712 | 28816 ft | 436 kts | 346° |
| 2026-04-30 17:59 | 26.31851 | -82.18779 | 28314 ft | 445 kts | 26° |
| 2026-04-30 18:00 | 26.39729 | -82.08320 | 27801 ft | 457 kts | 70° |
| 2026-04-30 18:00 | 26.39937 | -81.97825 | 27430 ft | 457 kts | 107° |
| 2026-04-30 18:01 | 26.36902 | -81.91691 | 27181 ft | 452 kts | 133° |
| 2026-04-30 18:02 | 26.30074 | -81.84508 | 26432 ft | 448 kts | 139° |
| 2026-04-30 18:02 | 26.23223 | -81.77530 | 25810 ft | 445 kts | 142° |
| 2026-04-30 18:03 | 26.14770 | -81.74303 | 25459 ft | 430 kts | 186° |
| 2026-04-30 18:04 | 26.07004 | -81.78302 | 25116 ft | 410 kts | 230° |
| 2026-04-30 18:05 | 26.04131 | -81.88731 | 24710 ft | 390 kts | 281° |
| 2026-04-30 18:06 | 26.10077 | -81.98353 | 24269 ft | 386 kts | 319° |
| 2026-04-30 18:07 | 26.18318 | -82.05943 | 23824 ft | 383 kts | 319° |
| 2026-04-30 18:08 | 26.24935 | -82.10699 | 23499 ft | 384 kts | 341° |
| 2026-04-30 18:09 | 26.35218 | -82.08270 | 22999 ft | 405 kts | 36° |
| 2026-04-30 18:10 | 26.38951 | -81.96626 | 22463 ft | 429 kts | 100° |
| 2026-04-30 18:11 | 26.31823 | -81.86303 | 21961 ft | 427 kts | 138° |
| 2026-04-30 18:11 | 26.25301 | -81.79604 | 21594 ft | 424 kts | 138° |
| 2026-04-30 18:12 | 26.20655 | -81.71431 | 20903 ft | 419 kts | 113° |
| 2026-04-30 18:13 | 26.18244 | -81.65538 | 20417 ft | 417 kts | 114° |
| 2026-04-30 18:13 | 26.14523 | -81.56857 | 19709 ft | 411 kts | 115° |
| 2026-04-30 18:14 | 26.12050 | -81.51169 | 19281 ft | 409 kts | 115° |
| 2026-04-30 18:15 | 26.08340 | -81.42668 | 18590 ft | 405 kts | 115° |
| 2026-04-30 18:15 | 26.03244 | -81.35528 | 18171 ft | 396 kts | 158° |
| 2026-04-30 18:16 | 25.97997 | -81.35142 | 17930 ft | 377 kts | 202° |
| 2026-04-30 18:16 | 25.94006 | -81.38549 | 17681 ft | 359 kts | 241° |
| 2026-04-30 18:17 | 25.93016 | -81.41050 | 17543 ft | 352 kts | 259° |
| 2026-04-30 18:17 | 25.92815 | -81.43724 | 17417 ft | 346 kts | 277° |
| 2026-04-30 18:17 | 25.94380 | -81.48695 | 17164 ft | 342 kts | 297° |
| 2026-04-30 18:18 | 25.95447 | -81.51066 | 17040 ft | 342 kts | 297° |
| 2026-04-30 18:18 | 25.96500 | -81.53430 | 16916 ft | 342 kts | 297° |
| 2026-04-30 18:18 | 25.97551 | -81.55800 | 16789 ft | 341 kts | 297° |
| 2026-04-30 18:18 | 25.98729 | -81.58040 | 16658 ft | 341 kts | 307° |
| 2026-04-30 18:19 | 26.00410 | -81.59884 | 16544 ft | 341 kts | 323° |
| 2026-04-30 18:19 | 26.02554 | -81.61031 | 16411 ft | 344 kts | 341° |
| 2026-04-30 18:19 | 26.04948 | -81.61339 | 16295 ft | 351 kts | 359° |
| 2026-04-30 18:19 | 26.07345 | -81.60754 | 16171 ft | 358 kts | 18° |
| 2026-04-30 18:20 | 26.09488 | -81.59292 | 16044 ft | 366 kts | 38° |
| 2026-04-30 18:20 | 26.11086 | -81.57076 | 15920 ft | 374 kts | 58° |
| 2026-04-30 18:20 | 26.11916 | -81.54324 | 15814 ft | 379 kts | 80° |
| 2026-04-30 18:20 | 26.11816 | -81.51391 | 15694 ft | 383 kts | 102° |
| 2026-04-30 18:21 | 26.10899 | -81.48619 | 15564 ft | 383 kts | 115° |
| 2026-04-30 18:21 | 26.09751 | -81.45938 | 15443 ft | 384 kts | 116° |
| 2026-04-30 18:21 | 26.08593 | -81.43267 | 15330 ft | 383 kts | 115° |
| 2026-04-30 18:21 | 26.07445 | -81.40591 | 15205 ft | 383 kts | 115° |
| 2026-04-30 18:22 | 26.06083 | -81.38062 | 15082 ft | 381 kts | 130° |
| 2026-04-30 18:22 | 26.01636 | -81.35294 | 14994 ft | 368 kts | 176° |
| 2026-04-30 18:22 | 25.99122 | -81.35467 | 14992 ft | 360 kts | 198° |
| 2026-04-30 18:23 | 25.96886 | -81.36623 | 15004 ft | 353 kts | 219° |
| 2026-04-30 18:23 | 25.95183 | -81.38532 | 15002 ft | 346 kts | 239° |
| 2026-04-30 18:23 | 25.94177 | -81.40885 | 15003 ft | 340 kts | 257° |
| 2026-04-30 18:23 | 25.93920 | -81.43469 | 15002 ft | 336 kts | 275° |
| 2026-04-30 18:24 | 25.95378 | -81.48337 | 15003 ft | 334 kts | 296° |
| 2026-04-30 18:24 | 25.96372 | -81.50674 | 15007 ft | 335 kts | 295° |
| 2026-04-30 18:24 | 25.97353 | -81.53026 | 15008 ft | 335 kts | 295° |
| 2026-04-30 18:25 | 25.98325 | -81.55376 | 15008 ft | 335 kts | 295° |
| 2026-04-30 18:25 | 26.01161 | -81.59389 | 15011 ft | 336 kts | 325° |
| 2026-04-30 18:25 | 26.03305 | -81.60426 | 15004 ft | 340 kts | 344° |
| 2026-04-30 18:26 | 26.08014 | -81.59830 | 15001 ft | 355 kts | 23° |
| 2026-04-30 18:26 | 26.10017 | -81.58181 | 15000 ft | 363 kts | 44° |
| 2026-04-30 18:26 | 26.11388 | -81.55799 | 15005 ft | 371 kts | 65° |
| 2026-04-30 18:27 | 26.11444 | -81.50121 | 15002 ft | 379 kts | 110° |
| 2026-04-30 18:27 | 26.10389 | -81.47431 | 14997 ft | 380 kts | 115° |
| 2026-04-30 18:28 | 26.08051 | -81.41999 | 14951 ft | 412 kts | 115° |
| 2026-04-30 18:28 | 26.06837 | -81.39170 | 14876 ft | 404 kts | 115° |
| 2026-04-30 18:28 | 26.04384 | -81.33557 | 13504 ft | 404 kts | 116° |
| 2026-04-30 18:29 | 26.03160 | -81.30759 | 12857 ft | 401 kts | 116° |
| 2026-04-30 18:29 | 25.99592 | -81.22593 | 10832 ft | 387 kts | 116° |
| 2026-04-30 18:30 | 25.97294 | -81.17338 | 10137 ft | 366 kts | 116° |
| 2026-04-30 18:30 | 25.95062 | -81.12246 | 9491 ft | 363 kts | 116° |
| 2026-04-30 18:31 | 25.93968 | -81.09756 | 8901 ft | 362 kts | 116° |
| 2026-04-30 18:31 | 25.91779 | -81.04764 | 8223 ft | 363 kts | 116° |
| 2026-04-30 18:32 | 25.89629 | -80.99510 | 7891 ft | 367 kts | 112° |
| 2026-04-30 18:32 | 25.88655 | -80.96896 | 7054 ft | 368 kts | 113° |
| 2026-04-30 18:32 | 25.86674 | -80.91636 | 5740 ft | 363 kts | 113° |
| 2026-04-30 18:33 | 25.85699 | -80.89073 | 5241 ft | 355 kts | 114° |
| 2026-04-30 18:33 | 25.84417 | -80.84097 | 4747 ft | 323 kts | 91° |
| 2026-04-30 18:33 | 25.84511 | -80.81668 | 4570 ft | 306 kts | 89° |
| 2026-04-30 18:34 | 25.84569 | -80.79364 | 4440 ft | 290 kts | 93° |
| 2026-04-30 18:34 | 25.83442 | -80.75454 | 4375 ft | 253 kts | 126° |
| 2026-04-30 18:34 | 25.82415 | -80.73921 | 4264 ft | 242 kts | 130° |
| 2026-04-30 18:35 | 25.81362 | -80.72552 | 4132 ft | 230 kts | 140° |
| 2026-04-30 18:35 | 25.79986 | -80.71810 | 4015 ft | 216 kts | 173° |
| 2026-04-30 18:35 | 25.78557 | -80.71966 | 3985 ft | 202 kts | 199° |
| 2026-04-30 18:36 | 25.76948 | -80.74245 | 3982 ft | 198 kts | 258° |
| 2026-04-30 18:36 | 25.76760 | -80.75779 | 3979 ft | 200 kts | 262° |
| 2026-04-30 18:36 | 25.77411 | -80.78677 | 3976 ft | 205 kts | 315° |
| 2026-04-30 18:37 | 25.78699 | -80.79353 | 3974 ft | 209 kts | 352° |
| 2026-04-30 18:37 | 25.80122 | -80.79094 | 3981 ft | 210 kts | 25° |
| 2026-04-30 18:37 | 25.81385 | -80.78273 | 3973 ft | 212 kts | 39° |
| 2026-04-30 18:37 | 25.82261 | -80.76974 | 3975 ft | 212 kts | 72° |
| 2026-04-30 18:38 | 25.82345 | -80.75398 | 3974 ft | 207 kts | 99° |
| 2026-04-30 18:38 | 25.81794 | -80.73927 | 3999 ft | 216 kts | 122° |
| 2026-04-30 18:38 | 25.81033 | -80.72381 | 3940 ft | 235 kts | 119° |
| 2026-04-30 18:38 | 25.80311 | -80.70729 | 3862 ft | 239 kts | 116° |
| 2026-04-30 18:39 | 25.79646 | -80.69037 | 3832 ft | 239 kts | 115° |
| 2026-04-30 18:39 | 25.79036 | -80.67320 | 3744 ft | 238 kts | 111° |
| 2026-04-30 18:39 | 25.78488 | -80.65587 | 3613 ft | 239 kts | 110° |
| 2026-04-30 18:39 | 25.78001 | -80.63818 | 3418 ft | 247 kts | 107° |
| 2026-04-30 18:40 | 25.77592 | -80.61929 | 3262 ft | 252 kts | 102° |
| 2026-04-30 18:40 | 25.77461 | -80.59977 | 3021 ft | 257 kts | 90° |
| 2026-04-30 18:40 | 25.77539 | -80.57974 | 2989 ft | 262 kts | 88° |
| 2026-04-30 18:40 | 25.77634 | -80.55958 | 2998 ft | 262 kts | 88° |
| 2026-04-30 18:41 | 25.77721 | -80.53944 | 3000 ft | 261 kts | 89° |
| 2026-04-30 18:41 | 25.77794 | -80.51927 | 2998 ft | 261 kts | 89° |
| 2026-04-30 18:41 | 25.77860 | -80.49959 | 3007 ft | 248 kts | 89° |
| 2026-04-30 18:41 | 25.77925 | -80.48087 | 2943 ft | 241 kts | 89° |
| 2026-04-30 18:42 | 25.77996 | -80.46256 | 2668 ft | 241 kts | 89° |
| 2026-04-30 18:42 | 25.78157 | -80.42555 | 1989 ft | 232 kts | 89° |
| 2026-04-30 18:42 | 25.78226 | -80.40829 | 1702 ft | 217 kts | 89° |
| 2026-04-30 18:45 | 25.78697 | -80.29402 | 25 ft | 34 kts | 87° |
| 2026-04-30 18:45 | 25.78792 | -80.29159 | 22 ft | 36 kts | 58° |
| 2026-04-30 18:45 | 25.78845 | -80.28944 | 21 ft | 25 kts | 77° |
| 2026-04-30 18:46 | 25.78876 | -80.28762 | 18 ft | 15 kts | 84° |
| 2026-04-30 18:46 | 25.78912 | -80.28679 | 19 ft | 7 kts | 9° |
| 2026-04-30 18:46 | 25.78985 | -80.28681 | 19 ft | 13 kts | 358° |
| 2026-04-30 18:46 | 25.79055 | -80.28685 | 19 ft | 7 kts | 357° |
| 2026-04-30 18:47 | 25.79213 | -80.28696 | 19 ft | 12 kts | 355° |
| 2026-04-30 18:47 | 25.79257 | -80.28695 | 18 ft | 2 kts | 12° |
| 2026-04-30 18:47 | 25.79260 | -80.28694 | 18 ft | 0 kts | 16° |
| 2026-04-30 18:47 | 25.79263 | -80.28691 | 18 ft | 1 kts | 33° |
| 2026-04-30 18:48 | 25.79257 | -80.28661 | 19 ft | 11 kts | 118° |
| 2026-04-30 18:48 | 25.79204 | -80.28553 | 20 ft | 20 kts | 119° |
| 2026-04-30 18:48 | 25.79125 | -80.28424 | 24 ft | 20 kts | 129° |
| 2026-04-30 18:48 | 25.79051 | -80.28295 | 31 ft | 16 kts | 119° |
| 2026-04-30 18:49 | 25.79011 | -80.28214 | 31 ft | 13 kts | 119° |
| 2026-04-30 18:49 | 25.78953 | -80.28102 | 27 ft | 20 kts | 119° |
| 2026-04-30 18:49 | 25.78929 | -80.28006 | 27 ft | 13 kts | 77° |
| 2026-04-30 18:49 | 25.78943 | -80.27903 | 28 ft | 15 kts | 76° |
| 2026-04-30 18:50 | 25.78952 | -80.27842 | 25 ft | 0 kts | 85° |
| 2026-04-30 18:50 | 25.78952 | -80.27841 | 25 ft | 1 kts | 85° |
| 2026-04-30 18:50 | 25.78955 | -80.27790 | 24 ft | 17 kts | 88° |
| 2026-04-30 18:51 | 25.78956 | -80.27646 | 23 ft | 20 kts | 83° |
| 2026-04-30 18:51 | 25.78965 | -80.27509 | 24 ft | 17 kts | 102° |
| 2026-04-30 18:51 | 25.78932 | -80.27410 | 22 ft | 15 kts | 110° |
| 2026-04-30 18:51 | 25.78927 | -80.27272 | 19 ft | 20 kts | 85° |
| 2026-04-30 18:52 | 25.79017 | -80.27215 | 20 ft | 17 kts | 357° |
| 2026-04-30 18:52 | 25.79123 | -80.27196 | 21 ft | 13 kts | 60° |
| 2026-04-30 18:52 | 25.79127 | -80.27139 | 20 ft | 0 kts | 88° |